默认 日期 大小 文件数 浏览量 最新下载 xml
09.11磁力链接相关资源由用户搜索指令自动获取,结果来源于网络,本站不存储任何资料,亦不承担任何责任,请于24小时内删除,搜索到20647个磁力,显示前4000条数据,用时38ms。
    {"1.iso": 4667439104, "SP ���֤l�׾�.html": 1564, "SP ���֤l�׾� �ۦ��u�����ɹζ�!!.txt": 250, "�w�鷺�a�|�� �׾¯S�O�t�~�W�]�n���f.txt": 87, "�Φ����s���}�i�J���U SP ���֤l�׾�-���M�|.txt": 293}
创建时间: 2020-04-22 13:27:12 大小:4.35 GB 文件数量:5 热度:12 最近下载:2025-03-24 08:35:02
    {"Provided by torrentgalaxy.to .nfo": 690, "FakeTaxi.19.09.11.Liz.Rainbow.XXX.720p.WEB.x264-GalaXXXy.mkv": 398829956}
创建时间: 2020-04-22 15:16:18 大小:380.35 MB 文件数量:2 热度:4 最近下载:2024-12-15 00:49:02
    ... .out.with.david.spade.2019.09.11.jay.leno.1080p.web.x264 ... .out.with.david.spade.2019.09.11.jay.leno.1080p.web.x264 ...
创建时间: 2020-04-22 22:23:20 大小:765.37 MB 文件数量:8 热度:4 最近下载:2025-08-01 18:14:11
    {"RARBG.txt": 30, "the.daily.show.2017.09.11.idris.elba.web.x264-tbs.mkv": 331911432, "the.daily.show.2017.09.11.idris.elba.web.x264-tbs.nfo": 60}
创建时间: 2020-04-23 02:57:46 大小:316.54 MB 文件数量:3 热度:3 最近下载:2023-12-31 21:49:04
    {"McDull.Kung.Fu.Kindergarten.2009.Blu-ray.REMUX.H264.1080P.DTS-HD.DualAudio.MySilu.ts": 14653896316}
创建时间: 2020-04-23 21:10:14 大小:13.65 GB 文件数量:1 热度:7 最近下载:2024-12-19 23:08:02
    ... TOP 30 OF OCTOBER 2015 (09-11-2015).cue": 4022, "DJ ... - TOP 30 OF OCTOBER 2015 (09-11-2015).mp3": 283617989, "(16) ... Mix) [INFRAPROGRESSIVE].mp3": 10129202, "(09) [22. Johnny Norberg] Escape ( ... ISLAND].mp3": 10208614, "(22) [09. John OCallaghan feat. Sarah Howells ...
创建时间: 2020-04-24 01:10:23 大小:540.86 MB 文件数量:32 热度:2 最近下载:2024-01-01 01:09:06
    {"poster.jpg": 84970, "screens.jpg": 847826, "RARBG.com.txt": 33, "ffd.15.09.11.cadence.lux.hardcore.mp4": 1214605682}
创建时间: 2020-04-24 18:13:09 大小:1.13 GB 文件数量:4 热度:11 最近下载:2025-09-21 23:43:04
    ... .org.txt": 86, "gloryholesecrets.19.09.11.callie.klein.third.glory.hole ... .pov.mp4": 1676164131, "gloryholesecrets.19.09.11.callie.klein.third.glory.hole ...
创建时间: 2020-04-24 20:09:25 大小:1.59 GB 文件数量:13 热度:3 最近下载:2024-01-01 04:04:03
    {"gush.nfo": 293, "file_id.diz": 70, "RARBG.com.txt": 34, "09xzh1441739001.jpg": 765355, "0bhc11441739663.jpg": 830020, "0cnmt1441741152.jpg": 771357, "0ezqm1441738388.jpg": 809519, "0j1e41441746395.jpg": 453785, "0jkxf1441746224.jpg": 508555, " ...
创建时间: 2020-04-24 21:29:07 大小:255.59 MB 文件数量:440 热度:4 最近下载:2024-01-01 04:14:03
    ... The Beautiful - S30 Ep7669 - 2017-09-11.mp4": 523792567, "The Bold And ... The Beautiful - S30 Ep7669 - 2017-09-11.srt": 28605, "The Bold And ... - Next On B&B - 2017-09-12.mp4": 2199048, "The Bold ... - Pillow Talk (Bonus Scene) - 2017-09-11.mp4": 72411540}
创建时间: 2020-04-25 23:08:53 大小:570.71 MB 文件数量:4 热度:3 最近下载:2024-01-01 04:54:02
    ... s My Life.flac": 32747936, "09 - Keep The Faith.flac": ... On Blood.flac": 63335911, "BonJovi2002-09-11-TTD.ffp": 1065, "08 - ... flac": 28505990, "Bon Jovi - 2002-09-11 Poster.jpg": 296891, "Frequency Analysis ... -Just Older.flac": 81094217, "11 - I'll Sleep When I ...
创建时间: 2020-04-26 22:42:02 大小:667.07 MB 文件数量:20 热度:3 最近下载:2024-01-01 07:25:05
    ... 3595766, "packed.paraZite.org.2009.09.11-pZ.nfo": 15818, "packed. ... paraZite.org.2009.09.11-pZ.nfo.png": 6167106, " ...
创建时间: 2020-04-27 13:51:06 大小:2.84 GB 文件数量:11 热度:6 最近下载:2025-01-21 11:57:06
    {"Рикошет.2020.(09.серия.от.16).WEB-HD. ... -BULGAR.mkv": 1670718254, "Рикошет.2020.(11.серия.от.16).WEB-HD ...
创建时间: 2020-04-27 19:18:17 大小:4.67 GB 文件数量:3 热度:14 最近下载:2025-08-08 13:08:02
    ... H - Day 2 (28-09-11) BATE Borisov-FCB.avi": 144800224 ... H - Day 2 (28-09-11) BATE Borisov-FCB.avi": 270306086 ... H - Day 2 (28-09-11) BATE Borisov-FCB.avi": ... H - Day 2 (28-09-11) BATE Borisov-FCB.avi": ... .H - Day 2 (28-09-11) BATE Borisov-FCB.avi": 278779136 ...
创建时间: 2020-04-27 23:44:42 大小:1.13 GB 文件数量:5 热度:6 最近下载:2025-08-07 09:45:02
    ... -09-11 s2t06 Drums_spectrogram.png": 193461, "gd81-09-11 s2t07 Space_spectrogram.png": 188653, "gd81-09-11 ... -09-11 s1t09 BIODTL_spectrogram.png": 217585, "gd81-09-11 s1t10 Althea_spectrogram.png": 188927, "gd81-09-11 ...
创建时间: 2020-04-28 10:30:30 大小:4.58 GB 文件数量:312 热度:4 最近下载:2024-11-25 09:56:01
    {"__ia_thumb.jpg": 2906, "gd83-09-11d1t01.mp3": 7841792, "gd83-09-11d1t01.ogg": 3761863 ... .shn": 63484949, "gd83-09-11d2t04.mp3": 21620736, "gd83-09-11d2t04.ogg": 10387650 ... , "gd1983-09-11.23224.md5": 1242, "gd1983-09-11.23224.txt": 2724, "gd1983-09-11.senn441 ...
创建时间: 2020-04-28 15:45:44 大小:1.35 GB 文件数量:119 热度:3 最近下载:2024-01-01 11:18:03
    {"ml-ts130911hnks[XoX].mp4": 1542558215}
创建时间: 2020-04-29 09:35:37 大小:1.44 GB 文件数量:1 热度:6 最近下载:2025-04-23 20:15:03
    ... ": 84, "the.daily.show.2017.09.11.idris.elba.web.x264-tbs ... ": 331911432, "the.daily.show.2017.09.11.idris.elba.web.x264-tbs ...
创建时间: 2020-04-29 14:08:33 大小:319.61 MB 文件数量:7 热度:2 最近下载:2024-01-01 13:26:02
    {"ohrly.nfo": 7157, "file_id.diz": 241, "RARBG.com.txt": 34, "RARBG.COM_XXX_BANNER.jpg": 517081, "070e8e164654d2d1aae332706efccaf2.jpg": 982299, "14ced2d3b2e2dec089c5ed16f789f118.jpg": 723920, "1f26373be7c2d4c25b930099264cf41e.jpg": 1192522, " ...
创建时间: 2020-04-30 09:45:44 大小:42.1 MB 文件数量:47 热度:2 最近下载:2024-01-01 15:55:02
    ... Me Up.flac": 29833756, "BonJovi2002-09-11.ffp": 1065, "07 - The ... s My Life.flac": 32747936, "09 - Keep The Faith.flac": ... flac": 28505990, "Bon Jovi - 2002-09-11 Poster.jpg": 296891, "Frequency Analysis ... -Just Older.flac": 81094217, "11 - I'll Sleep When I ...
创建时间: 2020-04-30 10:22:57 大小:667.07 MB 文件数量:20 热度:3 最近下载:2025-04-01 09:35:02